Latest Weather Observations for Penrith

IDN60801

Issued at 6:35 am EST Saturday 26 July 2014 (issued every 30 minutes, with the page automatically refreshed every 10 minutes)

About weather observations | Map of weather stations | Latest weather observations for NSW | Other Formats
Station Details ID: 067113 Name: PENRITH LAKES AWS Lat: -33.72 Lon: 150.68 Height: 24.7 m
Data from the previous 72 hours. | See also: Recent months at Penrith
Date/Time
EST
Temp
°C
App
Temp
°C
Dew
Point
Rel
Hum
%
Delta-T
°C
Wind Press
QNH
hPa
Press
MSL
hPa
Rain
since 9 am
mm
Dir
 
Spd
km/h
Gust
km/h
Spd
kts
Gust
kts
26/06:30am 11.0 10.9 9.6 91 0.7 N 0 2 0 1 - - 1.6
26/06:00am 11.0 10.6 9.6 91 0.7 N 2 4 1 2 - - 0.8
26/05:30am 11.0 10.9 9.4 90 0.8 CALM 0 0 0 0 - - 0.8
26/05:00am 10.9 10.7 9.0 88 0.9 CALM 0 4 0 2 - - 0.6
26/04:30am 11.2 10.6 8.8 85 1.2 NNE 2 6 1 3 - - 0.4
26/04:00am 11.0 9.5 8.6 85 1.2 S 6 7 3 4 - - 0.2
26/03:30am 10.9 9.4 8.3 84 1.3 SSE 6 7 3 4 - - 0.2
26/03:00am 10.9 9.5 8.7 86 1.1 S 6 6 3 3 - - 0.2
26/02:30am 10.9 9.9 8.8 87 1.0 SSW 4 6 2 3 - - 0.2
26/02:00am 11.3 10.3 8.7 84 1.3 NNW 4 6 2 3 - - 0.2
26/01:30am 12.0 11.0 8.8 81 1.6 E 4 6 2 3 - - 0.2
26/01:00am 12.1 11.2 9.1 82 1.5 S 4 6 2 3 - - 0.2
26/12:30am 13.0 12.1 9.3 78 1.9 NW 4 6 2 3 - - 0.2
26/12:00am 12.8 11.9 9.1 78 1.9 SE 4 6 2 3 - - 0.2
 
Date/Time
EST
Temp
°C
App
Temp
°C
Dew
Point
Rel
Hum
%
Delta-T
°C
Wind Press
QNH
hPa
Press
MSL
hPa
Rain
since 9 am
mm
Dir
 
Spd
km/h
Gust
km/h
Spd
kts
Gust
kts
25/11:30pm 12.5 11.9 9.0 79 1.8 SSE 2 6 1 3 - - 0.2
25/11:00pm 12.6 11.7 9.2 80 1.7 WNW 4 7 2 4 - - 0.2
25/10:30pm 12.6 12.3 8.7 77 1.9 CALM 0 4 0 2 - - 0.2
25/10:00pm 13.4 12.4 8.9 74 2.3 N 4 6 2 3 - - 0.2
25/09:30pm 13.9 13.0 9.1 73 2.4 NW 4 6 2 3 - - 0.2
25/09:00pm 14.4 11.4 9.2 71 2.7 N 15 17 8 9 - - 0.2
25/08:30pm 14.6 11.9 9.0 69 2.9 N 13 15 7 8 - - 0.2
25/08:00pm 15.0 12.3 9.1 68 3.0 N 13 15 7 8 - - 0.2
25/07:30pm 15.8 13.9 9.0 64 3.5 N 9 11 5 6 - - 0.2
25/07:00pm 16.5 14.6 9.0 61 3.9 N 9 11 5 6 - - 0.2
25/06:30pm 17.0 14.3 8.9 59 4.2 N 13 22 7 12 - - 0.2
25/06:00pm 17.0 15.5 9.2 60 4.1 NNW 7 11 4 6 - - 0.2
25/05:30pm 18.2 16.2 8.7 54 4.9 N 9 15 5 8 - - 0.2
25/05:00pm 19.4 15.4 8.4 49 5.7 N 19 30 10 16 - - 0.2
25/04:30pm 20.4 16.2 8.1 45 6.4 N 20 28 11 15 - - 0.2
25/04:00pm 20.6 15.7 8.3 45 6.4 N 24 35 13 19 - - 0.2
25/03:30pm 21.4 15.6 8.0 42 7.0 N 28 41 15 22 - - 0.2
25/03:00pm 21.8 15.3 8.0 41 7.2 N 32 44 17 24 - - 0.2
25/02:30pm 21.5 15.0 8.1 42 7.0 N 32 41 17 22 - - 0.2
25/02:00pm 21.9 17.5 9.1 44 6.8 N 22 32 12 17 - - 0.2
25/01:30pm 19.1 18.2 10.6 58 4.6 E 6 9 3 5 - - 0.2
25/01:00pm 15.2 14.9 10.2 72 2.6 SSE 2 4 1 2 - - 0.2
25/12:30pm 13.2 13.0 9.1 76 2.1 CALM 0 2 0 1 - - 0.2
25/12:00pm 10.9 9.6 7.8 81 1.5 SSW 4 6 2 3 - - 0.2
25/11:30am 9.7 8.3 7.3 85 1.1 SSW 4 7 2 4 - - 0.2
25/11:00am 8.8 6.0 6.8 87 0.9 S 11 17 6 9 - - 0.2
25/10:30am 8.2 6.0 6.3 88 0.9 S 7 13 4 7 - - 0.2
25/10:00am 7.7 5.4 5.7 87 0.9 SSW 7 11 4 6 - - 0.2
25/09:30am 7.6 5.4 6.2 91 0.6 S 7 11 4 6 - - 0.2
25/09:00am 7.8 5.9 6.6 92 0.6 S 6 20 3 11 - - 0.6
25/08:30am 6.8 4.7 5.7 93 0.5 NNE 6 9 3 5 - - 0.2
25/08:00am 6.3 3.9 5.3 93 0.4 SSW 7 13 4 7 - - 0.2
25/07:30am 5.9 4.8 5.0 94 0.4 CALM 0 4 0 2 - - 0.0
25/07:00am 4.8 3.5 3.9 94 0.4 CALM 0 2 0 1 - - 0.0
25/06:30am 4.9 2.8 4.0 94 0.4 NNW 4 4 2 2 - - 0.0
25/06:00am 5.4 4.2 4.5 94 0.4 CALM 0 0 0 0 - - 0.0
25/05:30am 5.6 4.0 4.7 94 0.4 SSE 2 4 1 2 - - 0.0
25/05:00am 5.4 3.8 4.7 95 0.3 SE 2 4 1 2 - - 0.0
25/04:30am 5.6 4.1 4.9 95 0.3 SE 2 2 1 1 - - 0.0
25/04:00am 5.9 4.8 5.2 95 0.3 CALM 0 0 0 0 - - 0.0
25/03:30am 5.8 4.3 5.1 95 0.3 SSW 2 4 1 2 - - 0.0
25/03:00am 6.2 4.4 5.5 95 0.3 S 4 4 2 2 - - 0.0
25/02:30am 6.5 5.2 5.8 95 0.3 S 2 4 1 2 - - 0.0
25/02:00am 6.6 5.3 5.9 95 0.3 S 2 4 1 2 - - 0.0
25/01:30am 6.9 6.0 6.2 95 0.3 CALM 0 0 0 0 - - 0.0
25/01:00am 7.4 6.6 6.7 95 0.3 CALM 0 0 0 0 - - 0.0
25/12:30am 7.6 6.1 6.9 95 0.3 SSE 4 4 2 2 - - 0.0
25/12:00am 7.3 5.7 6.4 94 0.4 SSE 4 6 2 3 - - 0.0
 
Date/Time
EST
Temp
°C
App
Temp
°C
Dew
Point
Rel
Hum
%
Delta-T
°C
Wind Press
QNH
hPa
Press
MSL
hPa
Rain
since 9 am
mm
Dir
 
Spd
km/h
Gust
km/h
Spd
kts
Gust
kts
24/11:30pm 8.2 7.2 7.3 94 0.4 WSW 2 2 1 1 - - 0.0
24/11:00pm 8.9 8.1 8.0 94 0.4 NW 2 4 1 2 - - 0.0
24/10:30pm 8.6 7.3 7.7 94 0.4 SSE 4 4 2 2 - - 0.0
24/10:00pm 9.0 7.8 8.1 94 0.4 S 4 6 2 3 - - 0.0
24/09:30pm 9.3 8.6 8.4 94 0.4 W 2 4 1 2 - - 0.0
24/09:00pm 9.6 8.5 8.5 93 0.5 W 4 4 2 2 - - 0.0
24/08:30pm 9.8 9.4 8.4 91 0.7 CALM 0 0 0 0 - - 0.0
24/08:00pm 10.5 9.9 9.1 91 0.7 W 2 2 1 1 - - 0.0
24/07:30pm 11.0 10.0 8.9 87 1.0 W 4 6 2 3 - - 0.0
24/07:00pm 11.5 11.3 9.1 85 1.2 CALM 0 0 0 0 - - 0.0
24/06:30pm 11.7 11.3 8.4 80 1.6 CALM 0 2 0 1 - - 0.0
24/06:00pm 13.3 13.1 9.2 76 2.1 CALM 0 0 0 0 - - 0.0
24/05:30pm 14.1 13.8 8.7 70 2.7 CALM 0 0 0 0 - - 0.0
24/05:00pm 15.4 14.1 9.1 66 3.2 NNE 6 7 3 4 - - 0.0
24/04:30pm 16.2 16.1 9.4 64 3.5 CALM 0 0 0 0 - - 0.0
24/04:00pm 15.4 15.2 9.1 66 3.2 CALM 0 0 0 0 - - 0.0
24/03:30pm 15.1 14.5 8.8 66 3.2 N 2 4 1 2 - - 0.0
24/03:00pm 15.0 13.6 8.7 66 3.2 N 6 7 3 4 - - 0.0
24/02:30pm 15.3 13.3 8.5 64 3.4 N 9 13 5 7 - - 0.0
24/02:00pm 16.2 14.3 8.9 62 3.8 N 9 15 5 8 - - 0.0
24/01:30pm 14.7 13.0 8.4 66 3.2 NNE 7 11 4 6 - - 0.0
24/01:00pm 14.0 11.5 8.0 67 3.0 NNE 11 15 6 8 - - 0.0
24/12:30pm 13.6 12.8 8.0 69 2.8 N 2 7 1 4 - - 0.0
24/12:00pm 13.0 11.7 7.7 70 2.6 N 4 7 2 4 - - 0.0
24/11:30am 12.2 11.6 7.5 73 2.3 CALM 0 6 0 3 - - 0.0
24/11:00am 12.2 10.9 7.5 73 2.3 NNW 4 7 2 4 - - 0.0
24/10:30am 10.9 9.6 7.6 80 1.6 NW 4 6 2 3 - - 0.0
24/10:00am 9.7 8.4 7.8 88 0.9 N 4 6 2 3 - - 0.0
24/09:30am 8.1 6.9 6.6 90 0.7 NNW 2 4 1 2 - - 0.0
24/09:00am 7.8 6.7 6.7 93 0.5 N 2 6 1 3 - - 0.2
24/08:30am 6.8 5.5 5.9 94 0.4 NNW 2 4 1 2 - - 0.2
24/08:00am 6.5 4.4 5.9 96 0.3 N 6 7 3 4 - - 0.2
24/07:30am 6.0 5.0 5.6 97 0.2 CALM 0 0 0 0 - - 0.2
24/07:00am 5.6 4.5 5.2 97 0.2 CALM 0 0 0 0 - - 0.2
24/06:30am 5.3 4.2 4.9 97 0.2 CALM 0 0 0 0 - - 0.2
24/06:00am 5.5 4.4 5.1 97 0.2 CALM 0 0 0 0 - - 0.2
24/05:30am 5.5 4.4 5.1 97 0.2 CALM 0 0 0 0 - - 0.2
24/05:00am 6.0 4.6 5.6 97 0.2 SW 2 2 1 1 - - 0.2
24/04:30am 5.8 4.7 5.2 96 0.3 CALM 0 0 0 0 - - 0.2
24/04:00am 6.0 4.2 5.4 96 0.3 S 4 4 2 2 - - 0.2
24/03:30am 6.4 5.4 5.8 96 0.3 CALM 0 0 0 0 - - 0.2
24/03:00am 6.3 5.3 5.6 95 0.3 CALM 0 0 0 0 - - 0.2
24/02:30am 6.7 5.8 6.0 95 0.3 CALM 0 0 0 0 - - 0.2
24/02:00am 6.8 5.1 6.1 95 0.3 SSW 4 4 2 2 - - 0.2
24/01:30am 7.1 5.8 6.2 94 0.4 SSE 2 4 1 2 - - 0.2
24/01:00am 7.3 5.3 6.4 94 0.4 S 6 7 3 4 - - 0.2
24/12:30am 7.7 7.0 6.8 94 0.4 CALM 0 0 0 0 - - 0.2
24/12:00am 7.7 7.0 6.8 94 0.4 CALM 0 2 0 1 - - 0.2
 
Date/Time
EST
Temp
°C
App
Temp
°C
Dew
Point
Rel
Hum
%
Delta-T
°C
Wind Press
QNH
hPa
Press
MSL
hPa
Rain
since 9 am
mm
Dir
 
Spd
km/h
Gust
km/h
Spd
kts
Gust
kts
23/11:30pm 7.7 6.5 6.6 93 0.5 S 2 4 1 2 - - 0.2
23/11:00pm 7.9 6.8 7.0 94 0.4 S 2 4 1 2 - - 0.2
23/10:30pm 7.8 6.3 6.7 93 0.5 S 4 6 2 3 - - 0.2
23/10:00pm 8.4 7.8 7.2 92 0.6 CALM 0 2 0 1 - - 0.2
23/09:30pm 8.9 7.9 7.5 91 0.7 S 2 4 1 2 - - 0.2
23/09:00pm 9.2 8.6 7.5 89 0.8 CALM 0 0 0 0 - - 0.2
23/08:30pm 9.8 9.0 8.1 89 0.8 S 2 4 1 2 - - 0.2
23/08:00pm 9.9 8.4 7.0 82 1.4 WSW 4 4 2 2 - - 0.2
23/07:30pm 11.4 10.7 7.1 75 2.1 CALM 0 2 0 1 - - 0.2
23/07:00pm 13.0 11.4 7.9 71 2.5 NNW 6 7 3 4 - - 0.2
23/06:30pm 12.9 12.0 7.8 71 2.5 NNW 2 4 1 2 - - 0.2
23/06:00pm 13.2 12.3 7.6 69 2.7 NNW 2 4 1 2 - - 0.2
23/05:30pm 14.4 13.1 7.5 63 3.4 NNW 4 6 2 3 - - 0.2
23/05:00pm 15.1 13.1 6.4 56 4.2 ENE 6 7 3 4 - - 0.2
23/04:30pm 16.3 14.7 6.2 51 4.9 E 4 6 2 3 - - 0.2
23/04:00pm 17.0 14.8 6.2 49 5.3 NE 7 9 4 5 - - 0.2
23/03:30pm 17.4 15.3 6.6 49 5.3 NE 7 13 4 7 - - 0.2
23/03:00pm 17.6 15.3 5.5 45 5.9 ENE 7 13 4 7 - - 0.2
23/02:30pm 18.4 15.8 6.3 45 6.0 NE 9 15 5 8 - - 0.2
23/02:00pm 18.1 15.5 6.3 46 5.8 NNE 9 17 5 9 - - 0.2
23/01:30pm 17.4 15.1 5.7 46 5.7 ENE 7 13 4 7 - - 0.2
23/01:00pm 17.3 15.2 6.8 50 5.2 NNE 7 13 4 7 - - 0.2
23/12:30pm 17.1 15.6 8.3 56 4.5 NNE 6 11 3 6 - - 0.2
23/12:00pm 16.5 15.5 8.7 60 4.0 NE 4 6 2 3 - - 0.0
23/11:30am 15.4 14.8 8.9 65 3.3 N 2 4 1 2 - - 0.0
23/11:00am 13.4 12.5 9.1 75 2.2 WSW 4 7 2 4 - - 0.0
23/10:30am 12.8 12.3 9.3 79 1.8 NW 2 4 1 2 - - 0.0
23/10:00am 11.4 10.9 9.3 87 1.1 W 2 6 1 3 - - 0.0
23/09:30am 9.3 8.6 8.7 96 0.3 WNW 2 4 1 2 - - 0.0
23/09:00am 7.9 7.3 7.6 98 0.1 CALM 0 0 0 0 - - 1.2
23/08:30am 6.6 5.7 6.2 97 0.2 CALM 0 0 0 0 - - 1.2
23/08:00am 5.7 4.3 5.3 97 0.2 N 2 4 1 2 - - 1.2
23/07:30am 5.8 4.8 5.4 97 0.2 CALM 0 0 0 0 - - 1.2
23/07:00am 5.7 4.6 5.3 97 0.2 CALM 0 0 0 0 - - 1.2

Other Formats:

Comma delimited format used in spreadsheet applications
http://www.bom.gov.au/fwo/IDN60801/IDN60801.94763.axf

JavaScript Object Notation format (JSON) in row-major order
http://www.bom.gov.au/fwo/IDN60801/IDN60801.94763.json